createdAt,value
2022-08-22T00:06:16.582Z,76.20
2022-08-22T00:16:59.325Z,76.04
2022-08-22T00:27:34.575Z,75.67
2022-08-22T00:38:09.233Z,75.44
2022-08-22T00:49:10.407Z,75.54
2022-08-22T01:00:04.692Z,76.21
2022-08-22T01:10:55.953Z,75.75
2022-08-22T01:22:10.188Z,75.42
2022-08-22T01:33:09.898Z,75.59
2022-08-22T01:44:00.900Z,75.65
2022-08-22T01:54:49.989Z,75.42
2022-08-22T02:05:32.201Z,75.54
2022-08-22T02:16:12.560Z,75.48
2022-08-22T02:26:51.866Z,75.56
2022-08-22T02:37:31.487Z,75.97
2022-08-22T02:48:06.912Z,76.34
2022-08-22T02:58:53.865Z,76.43
2022-08-22T03:09:32.996Z,76.58
2022-08-22T03:20:11.225Z,76.61
2022-08-22T03:30:46.181Z,76.66
2022-08-22T03:41:41.532Z,76.32
2022-08-22T03:52:34.557Z,76.35
2022-08-22T04:03:33.168Z,76.55
2022-08-22T04:14:23.239Z,76.96
2022-08-22T04:25:04.686Z,77.00
2022-08-22T04:35:43.081Z,77.06
2022-08-22T04:46:17.927Z,77.23
2022-08-22T04:57:04.323Z,77.14
2022-08-22T05:07:39.287Z,77.28
2022-08-22T05:18:11.732Z,77.57
2022-08-22T05:28:44.171Z,77.59
2022-08-22T05:39:17.897Z,77.04
2022-08-22T05:49:55.939Z,77.05
2022-08-22T06:00:27.936Z,76.88
2022-08-22T06:11:01.572Z,76.69
2022-08-22T06:21:37.167Z,77.11
2022-08-22T06:32:15.734Z,77.41
2022-08-22T06:42:48.290Z,77.64
2022-08-22T06:53:20.518Z,77.81
2022-08-22T07:03:53.043Z,77.86
2022-08-22T07:14:30.006Z,77.91
2022-08-22T07:25:03.190Z,77.92
2022-08-22T07:35:37.047Z,78.30
2022-08-22T07:46:18.521Z,78.19
2022-08-22T07:56:55.341Z,78.08
2022-08-22T08:07:28.526Z,77.89
2022-08-22T08:18:02.574Z,78.13
2022-08-22T08:28:38.457Z,77.79
2022-08-22T08:39:17.502Z,77.53
2022-08-22T08:49:59.272Z,77.58
2022-08-22T09:00:46.019Z,77.72
2022-08-22T09:12:01.084Z,78.08
2022-08-22T09:22:51.034Z,78.28
2022-08-22T09:33:24.781Z,78.50
2022-08-22T09:44:04.841Z,78.66
2022-08-22T09:54:42.745Z,78.74
2022-08-22T10:05:35.256Z,78.89
2022-08-22T10:16:21.869Z,78.83
2022-08-22T10:26:54.849Z,78.85
2022-08-22T10:37:31.491Z,78.82
2022-08-22T10:48:36.255Z,78.92
2022-08-22T10:59:14.235Z,78.99
2022-08-22T11:09:51.511Z,79.32
2022-08-22T11:20:34.371Z,79.26
2022-08-22T11:31:11.212Z,79.28
2022-08-22T11:41:48.399Z,79.35
2022-08-22T11:52:54.618Z,79.43
2022-08-22T12:03:36.438Z,79.60
2022-08-22T12:14:17.566Z,79.93
2022-08-22T12:25:05.205Z,79.78
2022-08-22T12:35:43.683Z,79.89
2022-08-22T12:46:19.626Z,79.96
2022-08-22T12:56:59.589Z,79.57
2022-08-22T13:07:31.922Z,79.78
2022-08-22T13:18:25.121Z,79.56
2022-08-22T13:29:24.133Z,79.48
2022-08-22T13:39:50.163Z,79.31
2022-08-22T13:50:24.796Z,79.62
2022-08-22T14:01:20.444Z,79.59
2022-08-22T14:12:02.375Z,79.89
2022-08-22T14:22:35.137Z,79.62
2022-08-22T14:33:13.654Z,79.46
2022-08-22T14:43:54.575Z,79.55
2022-08-22T14:54:28.994Z,79.71
2022-08-22T15:05:01.947Z,79.95
2022-08-22T15:15:49.805Z,80.03
2022-08-22T15:26:28.578Z,80.09
2022-08-22T15:37:29.984Z,80.35
2022-08-22T15:48:04.444Z,80.00
2022-08-22T15:58:37.509Z,80.28
2022-08-22T16:09:07.387Z,80.31
2022-08-22T16:19:38.574Z,80.41
2022-08-22T16:30:16.850Z,80.47
2022-08-22T16:40:50.724Z,80.55
2022-08-22T16:51:22.365Z,80.73
2022-08-22T17:02:15.966Z,81.04
2022-08-22T17:12:56.400Z,80.96
2022-08-22T17:23:40.690Z,81.18
2022-08-22T17:34:30.286Z,81.03
2022-08-22T17:45:12.846Z,80.92
2022-08-22T17:56:00.268Z,80.92
2022-08-22T18:06:32.432Z,81.06
2022-08-22T18:17:02.484Z,80.83
2022-08-22T18:27:38.587Z,80.67
2022-08-22T18:38:19.793Z,80.28
2022-08-22T18:49:12.060Z,80.12
2022-08-22T18:59:59.921Z,80.18
2022-08-22T19:10:55.753Z,80.01
2022-08-22T19:21:46.474Z,79.52
2022-08-22T19:32:52.327Z,79.39
2022-08-22T19:43:38.850Z,79.34
2022-08-22T19:54:25.363Z,79.32
2022-08-22T20:05:13.086Z,79.39
2022-08-22T20:16:06.880Z,79.26
2022-08-22T20:26:51.960Z,79.06
2022-08-22T20:38:03.370Z,79.02
2022-08-22T20:48:19.708Z,78.75
2022-08-22T20:58:49.344Z,78.48
2022-08-22T21:09:39.804Z,78.22
2022-08-22T21:20:23.587Z,79.31
2022-08-22T21:30:53.073Z,79.93
2022-08-22T21:41:30.982Z,79.93
2022-08-22T21:51:59.989Z,80.06
2022-08-22T22:02:38.237Z,79.96
2022-08-22T22:13:09.309Z,79.16
2022-08-22T22:23:38.111Z,79.52
2022-08-22T22:34:07.154Z,79.12
2022-08-22T22:44:36.037Z,78.85
2022-08-22T22:55:05.477Z,78.20
2022-08-22T23:05:35.422Z,78.46
2022-08-22T23:16:10.068Z,78.55
2022-08-22T23:26:39.756Z,78.33
2022-08-22T23:37:09.676Z,78.41
2022-08-22T23:47:38.499Z,79.02
2022-08-22T23:58:07.959Z,79.20
